Time;durP1;ratioP1;P1;durP2;ratioP2;P2;SDS_P1;SDS_P2;PMS_P1;PMS_P2;Temp;Humidity;BMP_temperature;BMP_pressure;BME280_temperature;BME280_humidity;BME280_pressure;Samples;Min_cycle;Max_cycle;Signal;HPM_P1;HPM_P2
2023/09/24 00:00:55;;;;;;;6.55;2.70;;;11.80;99.90;;;;;;5093547;28;20817;-68
2023/09/24 00:03:22;;;;;;;8.25;2.88;;;11.80;99.90;;;;;;5112014;28;20047;-69
2023/09/24 00:05:51;;;;;;;6.97;2.92;;;11.80;99.90;;;;;;5093725;28;20051;-67
2023/09/24 00:08:18;;;;;;;5.15;2.83;;;11.80;99.90;;;;;;5091290;28;20502;-68
2023/09/24 00:10:47;;;;;;;10.63;3.10;;;11.70;99.90;;;;;;5093601;28;20058;-68
2023/09/24 00:13:14;;;;;;;5.30;2.90;;;11.70;99.90;;;;;;5094079;28;20051;-68
2023/09/24 00:15:41;;;;;;;9.75;3.33;;;11.60;99.90;;;;;;5092939;28;20127;-68
2023/09/24 00:18:08;;;;;;;6.00;2.55;;;11.60;99.90;;;;;;5093678;28;20047;-67
2023/09/24 00:20:35;;;;;;;8.45;2.70;;;11.50;99.90;;;;;;5094693;28;20431;-67
2023/09/24 00:23:04;;;;;;;7.90;3.28;;;11.40;99.90;;;;;;5096346;28;20048;-68
2023/09/24 00:25:31;;;;;;;5.38;2.90;;;11.40;99.90;;;;;;5095881;28;20105;-68
2023/09/24 00:27:57;;;;;;;6.20;3.03;;;11.30;99.90;;;;;;5097316;28;20131;-67
2023/09/24 00:30:24;;;;;;;6.55;2.70;;;11.30;99.90;;;;;;5097209;28;20664;-67
2023/09/24 00:32:53;;;;;;;8.60;3.20;;;11.20;99.90;;;;;;5097272;28;20051;-67
2023/09/24 00:35:19;;;;;;;7.80;3.20;;;11.20;99.90;;;;;;5097144;28;20075;-67
2023/09/24 00:37:46;;;;;;;9.90;3.40;;;11.10;99.90;;;;;;5094501;28;20040;-67
2023/09/24 00:40:15;;;;;;;11.10;3.67;;;11.00;99.90;;;;;;5097541;28;20051;-67
2023/09/24 00:42:41;;;;;;;10.02;3.78;;;11.00;99.90;;;;;;5097116;28;20043;-68
2023/09/24 00:45:11;;;;;;;7.22;3.15;;;10.90;99.90;;;;;;5095705;28;20101;-68
2023/09/24 00:47:43;;;;;;;5.20;3.13;;;10.90;99.90;;;;;;5097010;28;20044;-68
2023/09/24 00:50:10;;;;;;;6.28;3.05;;;10.80;99.90;;;;;;5096479;28;20054;-67
2023/09/24 00:52:38;;;;;;;7.47;3.45;;;10.90;99.90;;;;;;5096852;28;20055;-67
2023/09/24 00:55:08;;;;;;;6.38;3.70;;;10.80;99.90;;;;;;5097076;28;20112;-68
2023/09/24 00:57:37;;;;;;;5.53;3.47;;;10.80;99.90;;;;;;5114448;28;20406;-67
2023/09/24 01:00:11;;;;;;;8.02;3.58;;;10.80;99.90;;;;;;5115443;28;20048;-68
2023/09/24 01:02:38;;;;;;;9.25;3.35;;;10.70;99.90;;;;;;5096981;28;20043;-67
2023/09/24 01:05:09;;;;;;;8.80;3.42;;;10.70;99.90;;;;;;5096154;28;20051;-67
2023/09/24 01:07:37;;;;;;;5.80;3.55;;;10.70;99.90;;;;;;5096744;28;20039;-69
2023/09/24 01:10:04;;;;;;;5.93;3.47;;;10.60;99.90;;;;;;5096937;28;20055;-68
2023/09/24 01:12:31;;;;;;;8.13;3.80;;;10.60;99.90;;;;;;5096188;28;20108;-67
2023/09/24 01:14:59;;;;;;;8.63;3.60;;;10.60;99.90;;;;;;5096809;28;20047;-68
2023/09/24 01:17:27;;;;;;;6.88;3.38;;;10.60;99.90;;;;;;5094782;28;20134;-69
2023/09/24 01:19:54;;;;;;;9.75;4.03;;;10.50;99.90;;;;;;5096154;28;20043;-69
2023/09/24 01:22:23;;;;;;;9.43;4.30;;;10.50;99.90;;;;;;5094567;28;20445;-69
2023/09/24 01:24:50;;;;;;;6.88;3.72;;;10.50;99.90;;;;;;5096704;28;20446;-69
2023/09/24 01:27:17;;;;;;;7.68;3.50;;;10.50;99.90;;;;;;5091278;28;20056;-69
2023/09/24 01:29:44;;;;;;;8.40;3.95;;;10.40;99.90;;;;;;5095182;28;20047;-69
2023/09/24 01:32:12;;;;;;;7.10;3.70;;;10.40;99.90;;;;;;5110481;28;20491;-69
2023/09/24 01:34:38;;;;;;;10.93;4.53;;;10.40;99.90;;;;;;5096337;28;20502;-69
2023/09/24 01:37:08;;;;;;;9.63;3.63;;;10.40;99.90;;;;;;5114236;28;20047;-68
2023/09/24 01:39:37;;;;;;;9.63;4.15;;;10.40;99.90;;;;;;5095498;28;20700;-68
2023/09/24 01:42:05;;;;;;;6.85;3.88;;;10.40;99.90;;;;;;5096264;28;20135;-69
2023/09/24 01:44:33;;;;;;;9.40;4.00;;;10.30;99.90;;;;;;5096143;28;20052;-69
2023/09/24 01:47:03;;;;;;;7.93;3.45;;;10.30;99.90;;;;;;5095358;28;20555;-68
2023/09/24 01:49:31;;;;;;;9.70;3.78;;;10.30;99.90;;;;;;5094169;28;20092;-69
2023/09/24 01:51:58;;;;;;;9.65;3.35;;;10.20;99.90;;;;;;5095751;28;20051;-68
2023/09/24 01:54:25;;;;;;;9.73;4.45;;;10.20;99.90;;;;;;5095595;28;20053;-67
2023/09/24 01:56:54;;;;;;;6.88;3.42;;;10.20;99.90;;;;;;5095512;28;20560;-68
2023/09/24 01:59:22;;;;;;;7.70;4.00;;;10.20;99.90;;;;;;5095993;28;20452;-68
2023/09/24 02:01:49;;;;;;;7.40;3.25;;;10.20;99.90;;;;;;5091589;28;20051;-68
2023/09/24 02:04:17;;;;;;;23.77;4.05;;;10.20;99.90;;;;;;5095733;28;20122;-68
2023/09/24 02:06:44;;;;;;;5.70;3.72;;;10.30;99.90;;;;;;5095680;28;20112;-69
2023/09/24 02:09:14;;;;;;;8.95;3.65;;;10.20;99.90;;;;;;5094976;28;20039;-69
2023/09/24 02:11:41;;;;;;;6.65;3.58;;;10.30;99.90;;;;;;5095991;28;20599;-68
2023/09/24 02:14:09;;;;;;;5.80;3.70;;;10.20;99.90;;;;;;5095550;28;20051;-68
2023/09/24 02:16:36;;;;;;;6.57;3.80;;;10.20;99.90;;;;;;5095089;28;20055;-68
2023/09/24 02:19:04;;;;;;;7.32;3.20;;;10.20;99.90;;;;;;5095315;28;20039;-68
2023/09/24 02:21:31;;;;;;;13.20;4.05;;;10.20;99.90;;;;;;5095083;28;20457;-69
2023/09/24 02:23:58;;;;;;;7.43;3.40;;;10.20;99.90;;;;;;5094980;28;20043;-68
2023/09/24 02:26:25;;;;;;;9.30;3.65;;;10.20;99.90;;;;;;5095429;28;20117;-69
2023/09/24 02:28:52;;;;;;;7.97;3.50;;;10.10;99.90;;;;;;5094624;28;20498;-68
2023/09/24 02:31:21;;;;;;;6.78;3.25;;;10.10;99.90;;;;;;5095337;28;20055;-68
2023/09/24 02:33:48;;;;;;;7.15;3.88;;;10.10;99.90;;;;;;5090707;28;20048;-67
2023/09/24 02:36:15;;;;;;;7.55;3.10;;;10.10;99.90;;;;;;5094739;28;20043;-68
2023/09/24 02:38:43;;;;;;;6.00;3.45;;;10.10;99.90;;;;;;5092883;28;20040;-69
2023/09/24 02:41:11;;;;;;;6.22;3.22;;;10.00;99.90;;;;;;5095108;28;20400;-69
2023/09/24 02:43:38;;;;;;;6.40;3.35;;;10.10;99.90;;;;;;5093924;28;20040;-69
2023/09/24 02:46:05;;;;;;;8.30;3.25;;;10.10;99.90;;;;;;5095113;28;20567;-69
2023/09/24 02:48:35;;;;;;;5.57;3.22;;;10.00;99.90;;;;;;5094914;28;20067;-69
2023/09/24 02:51:08;;;;;;;8.48;3.05;;;10.00;99.90;;;;;;5094094;28;20054;-68
2023/09/24 02:53:35;;;;;;;5.80;3.60;;;10.00;99.90;;;;;;5094949;28;20056;-68
2023/09/24 02:56:03;;;;;;;8.05;3.38;;;10.00;99.90;;;;;;5094789;28;20449;-68
2023/09/24 02:58:31;;;;;;;7.57;3.15;;;10.00;99.90;;;;;;5093842;28;20059;-69
2023/09/24 03:00:58;;;;;;;8.70;3.38;;;10.00;99.90;;;;;;5094923;28;20040;-68
2023/09/24 03:03:25;;;;;;;7.28;4.05;;;10.00;99.90;;;;;;5112484;28;20051;-69
2023/09/24 03:05:53;;;;;;;8.18;3.90;;;10.00;99.90;;;;;;5094687;28;20101;-68
2023/09/24 03:08:21;;;;;;;10.57;3.90;;;10.00;99.90;;;;;;5094398;28;20090;-68
2023/09/24 03:10:48;;;;;;;12.45;3.72;;;10.00;99.90;;;;;;5093841;28;20074;-69
2023/09/24 03:13:15;;;;;;;9.55;4.00;;;10.00;99.90;;;;;;5094597;28;20051;-68
2023/09/24 03:15:42;;;;;;;12.77;4.28;;;10.10;99.90;;;;;;5112470;28;20097;-68
2023/09/24 03:18:09;;;;;;;14.05;3.70;;;10.10;99.90;;;;;;5111866;28;20039;-68
2023/09/24 03:20:36;;;;;;;7.53;3.55;;;10.10;99.90;;;;;;5094426;28;20047;-68
2023/09/24 03:23:08;;;;;;;15.95;4.65;;;10.10;99.90;;;;;;5094483;28;20048;-68
2023/09/24 03:25:36;;;;;;;25.92;5.25;;;10.20;99.90;;;;;;5094181;28;20047;-68
2023/09/24 03:28:03;;;;;;;9.98;4.22;;;10.20;99.90;;;;;;5094269;28;20376;-68
2023/09/24 03:30:30;;;;;;;6.93;4.10;;;10.30;99.90;;;;;;5092007;28;20047;-68
2023/09/24 03:32:58;;;;;;;5.50;3.78;;;10.30;99.90;;;;;;5093671;28;20067;-68
2023/09/24 03:35:26;;;;;;;5.35;3.60;;;10.30;99.90;;;;;;5092485;28;20495;-68
2023/09/24 03:37:54;;;;;;;5.47;3.72;;;10.30;99.90;;;;;;5094203;28;20043;-68
2023/09/24 03:40:24;;;;;;;9.43;3.95;;;10.30;99.90;;;;;;5093735;28;20039;-68
2023/09/24 03:42:51;;;;;;;5.18;3.47;;;10.30;99.90;;;;;;5092109;28;20063;-68
2023/09/24 03:45:20;;;;;;;5.90;3.88;;;10.30;99.90;;;;;;5094403;28;20414;-68
2023/09/24 03:47:47;;;;;;;9.57;3.95;;;10.30;99.90;;;;;;5093599;28;20044;-68
2023/09/24 03:50:16;;;;;;;10.52;5.28;;;10.30;99.90;;;;;;5093377;28;20047;-68
2023/09/24 03:52:44;;;;;;;10.07;4.97;;;10.30;99.90;;;;;;5093393;28;20556;-68
2023/09/24 03:55:11;;;;;;;6.75;4.63;;;10.30;99.90;;;;;;5112479;28;20051;-68
2023/09/24 03:57:40;;;;;;;5.45;4.18;;;10.30;99.90;;;;;;5098027;28;20058;-68
2023/09/24 04:00:11;;;;;;;8.00;5.25;;;10.30;99.90;;;;;;5097617;28;20047;-68
2023/09/24 04:02:39;;;;;;;9.38;4.82;;;10.20;99.90;;;;;;5098271;28;20138;-69
2023/09/24 04:05:08;;;;;;;7.60;4.80;;;10.20;99.90;;;;;;5098143;28;20097;-68
2023/09/24 04:07:37;;;;;;;12.80;5.10;;;10.20;99.90;;;;;;5092863;28;20127;-68
2023/09/24 04:10:05;;;;;;;7.72;5.13;;;10.10;99.90;;;;;;5097636;28;20051;-69
2023/09/24 04:12:33;;;;;;;9.43;5.03;;;10.10;99.90;;;;;;5096278;28;20045;-67
2023/09/24 04:15:01;;;;;;;16.70;4.97;;;10.10;99.90;;;;;;5097336;28;20192;-68
2023/09/24 04:17:28;;;;;;;9.23;5.53;;;10.10;99.90;;;;;;5098006;28;20058;-69
2023/09/24 04:19:57;;;;;;;10.57;5.25;;;10.10;99.90;;;;;;5097689;28;20078;-68
2023/09/24 04:22:24;;;;;;;10.55;5.85;;;10.10;99.90;;;;;;5115382;28;20054;-68
2023/09/24 04:24:53;;;;;;;11.27;6.53;;;10.10;99.90;;;;;;5097631;28;20096;-68
2023/09/24 04:27:20;;;;;;;10.02;6.80;;;10.00;99.90;;;;;;5097629;28;20491;-72
2023/09/24 04:29:47;;;;;;;11.80;6.53;;;10.00;99.90;;;;;;5094850;28;20035;-71
2023/09/24 04:32:16;;;;;;;12.32;7.05;;;10.00;99.90;;;;;;5115567;28;20048;-70
2023/09/24 04:34:43;;;;;;;12.65;6.38;;;9.90;99.90;;;;;;5097604;28;20078;-69
2023/09/24 04:37:11;;;;;;;12.35;6.55;;;9.90;99.90;;;;;;5096362;28;20052;-69
2023/09/24 04:39:38;;;;;;;16.50;7.20;;;9.90;99.90;;;;;;5115468;28;20101;-70
2023/09/24 04:42:06;;;;;;;12.27;7.57;;;9.90;99.90;;;;;;5096871;28;20450;-70
2023/09/24 04:44:33;;;;;;;10.65;7.00;;;9.80;99.90;;;;;;5096315;28;20061;-70
2023/09/24 04:47:00;;;;;;;11.73;7.53;;;9.80;99.90;;;;;;5096931;28;20052;-70
2023/09/24 04:49:28;;;;;;;13.65;7.68;;;9.80;99.90;;;;;;5096570;28;20101;-70
2023/09/24 04:51:55;;;;;;;10.75;7.70;;;9.70;99.90;;;;;;5097199;28;20043;-71
2023/09/24 04:54:23;;;;;;;11.23;6.88;;;9.80;99.90;;;;;;5096929;28;20051;-71
2023/09/24 04:56:52;;;;;;;11.07;7.20;;;9.70;99.90;;;;;;5096259;28;20125;-70
2023/09/24 04:59:19;;;;;;;19.38;8.30;;;9.70;99.90;;;;;;5096741;28;20052;-69
2023/09/24 05:01:46;;;;;;;17.80;7.65;;;9.70;99.90;;;;;;5096841;28;20093;-68
2023/09/24 05:04:13;;;;;;;12.25;7.85;;;9.70;99.90;;;;;;5096421;28;20488;-69
2023/09/24 05:06:41;;;;;;;11.32;7.15;;;9.70;99.90;;;;;;5096591;28;20043;-69
2023/09/24 05:09:08;;;;;;;12.90;7.93;;;9.70;99.90;;;;;;5094432;28;20048;-69
2023/09/24 05:11:35;;;;;;;12.48;7.43;;;9.70;99.90;;;;;;5094839;28;20069;-69
2023/09/24 05:14:02;;;;;;;9.88;7.20;;;9.60;99.90;;;;;;5094217;28;20497;-69
2023/09/24 05:16:30;;;;;;;11.23;7.00;;;9.60;99.90;;;;;;5096912;28;20054;-69
2023/09/24 05:19:01;;;;;;;12.00;7.68;;;9.60;99.90;;;;;;5094255;28;20048;-69
2023/09/24 05:21:29;;;;;;;12.38;7.05;;;9.60;99.90;;;;;;5096369;28;20047;-70
2023/09/24 05:23:57;;;;;;;11.93;7.60;;;9.60;99.90;;;;;;5096597;28;20056;-69
2023/09/24 05:26:24;;;;;;;14.10;7.07;;;9.60;99.90;;;;;;5096051;28;20052;-69
2023/09/24 05:28:51;;;;;;;14.55;7.55;;;9.60;99.90;;;;;;5114837;28;20043;-69
2023/09/24 05:31:18;;;;;;;27.27;7.53;;;9.60;99.90;;;;;;5095914;28;20051;-70
2023/09/24 05:33:47;;;;;;;14.98;7.70;;;9.60;99.90;;;;;;5096527;28;20047;-69
2023/09/24 05:36:13;;;;;;;16.13;7.72;;;9.60;99.90;;;;;;5096302;28;20090;-69
2023/09/24 05:38:40;;;;;;;13.02;7.63;;;9.60;99.90;;;;;;5095454;28;20043;-68
2023/09/24 05:41:09;;;;;;;14.73;7.55;;;9.70;99.90;;;;;;5114185;28;20062;-69
2023/09/24 05:43:38;;;;;;;12.05;7.20;;;9.60;99.90;;;;;;5096116;28;20051;-70
2023/09/24 05:46:05;;;;;;;10.50;6.45;;;9.70;99.90;;;;;;5113908;28;20130;-68
2023/09/24 05:48:32;;;;;;;11.15;6.85;;;9.70;99.90;;;;;;5095815;28;20063;-69
2023/09/24 05:51:04;;;;;;;9.52;6.30;;;9.60;99.90;;;;;;5095668;28;20036;-68
2023/09/24 05:53:32;;;;;;;10.05;6.45;;;9.70;99.90;;;;;;5095453;28;20055;-69
2023/09/24 05:55:59;;;;;;;9.13;6.65;;;9.70;99.90;;;;;;5095724;28;20100;-68
2023/09/24 05:58:27;;;;;;;11.70;6.40;;;9.80;99.90;;;;;;5095767;28;20040;-69
2023/09/24 06:00:56;;;;;;;10.27;5.45;;;9.80;99.90;;;;;;5094945;28;20047;-70
2023/09/24 06:03:23;;;;;;;9.07;5.18;;;10.00;99.90;;;;;;5090807;28;20393;-70
2023/09/24 06:05:50;;;;;;;9.45;5.90;;;10.00;99.90;;;;;;5085351;28;20048;-71
2023/09/24 06:08:17;;;;;;;10.98;6.07;;;10.20;99.90;;;;;;5086882;28;20064;-69
2023/09/24 06:10:45;;;;;;;14.63;6.05;;;10.20;99.90;;;;;;5094522;28;20044;-70
2023/09/24 06:13:13;;;;;;;16.63;5.43;;;10.30;99.90;;;;;;5090670;28;20051;-67
2023/09/24 06:15:42;;;;;;;12.15;6.07;;;10.40;99.90;;;;;;5094683;28;20047;-68
2023/09/24 06:18:09;;;;;;;10.30;4.97;;;10.40;99.90;;;;;;5089054;28;20437;-74
2023/09/24 06:20:39;;;;;;;15.40;6.40;;;10.50;99.90;;;;;;5093101;28;20075;-62
2023/09/24 06:23:06;;;;;;;8.48;5.93;;;10.50;99.90;;;;;;5089497;28;20051;-63
2023/09/24 06:25:33;;;;;;;12.23;5.47;;;10.50;99.90;;;;;;5093402;28;20063;-61
2023/09/24 06:28:00;;;;;;;9.27;5.75;;;10.60;99.90;;;;;;5090901;28;20048;-62
2023/09/24 06:30:27;;;;;;;8.52;5.30;;;10.80;99.90;;;;;;5093308;28;20051;-62
2023/09/24 06:32:55;;;;;;;9.15;6.00;;;10.80;99.90;;;;;;5090356;28;20128;-62
2023/09/24 06:35:22;;;;;;;8.55;5.28;;;10.90;99.90;;;;;;5093089;28;20059;-62
2023/09/24 06:37:49;;;;;;;9.98;6.35;;;11.00;99.90;;;;;;5090625;28;20058;-62
2023/09/24 06:40:16;;;;;;;8.13;5.28;;;11.10;99.90;;;;;;5093216;28;20100;-62
2023/09/24 06:42:45;;;;;;;9.95;5.22;;;11.30;99.90;;;;;;5105069;27;20546;-63
2023/09/24 06:45:12;;;;;;;8.82;5.20;;;11.50;99.90;;;;;;5089159;28;20040;-62
2023/09/24 06:47:39;;;;;;;8.50;4.63;;;11.70;99.90;;;;;;5089363;28;20108;-62
2023/09/24 06:50:10;;;;;;;10.77;5.55;;;11.80;99.90;;;;;;5106616;28;20040;-63
2023/09/24 06:52:37;;;;;;;8.93;4.53;;;11.90;99.90;;;;;;5111446;28;20043;-62
2023/09/24 06:55:05;;;;;;;9.23;5.03;;;12.00;99.90;;;;;;5086331;28;20054;-63
2023/09/24 06:57:32;;;;;;;8.85;5.55;;;12.10;99.90;;;;;;5090913;28;20507;-62
2023/09/24 06:59:59;;;;;;;8.82;5.15;;;12.30;99.90;;;;;;5106321;28;20079;-62
2023/09/24 07:02:26;;;;;;;12.55;5.13;;;12.40;99.90;;;;;;5092164;28;20126;-63
2023/09/24 07:04:53;;;;;;;14.52;4.93;;;13.10;99.90;;;;;;5106962;28;20043;-62
2023/09/24 07:07:22;;;;;;;7.20;4.05;;;14.00;99.90;;;;;;5089944;28;20064;-62
2023/09/24 07:09:49;;;;;;;9.55;4.30;;;15.10;99.90;;;;;;5089475;28;20048;-63
2023/09/24 07:12:16;;;;;;;10.82;4.45;;;16.00;99.90;;;;;;5090350;28;20502;-62
2023/09/24 07:14:43;;;;;;;8.95;3.85;;;16.80;99.90;;;;;;5091473;28;20086;-63
2023/09/24 07:17:10;;;;;;;9.23;3.85;;;17.50;99.90;;;;;;5090115;28;20108;-62
2023/09/24 07:19:37;;;;;;;8.32;3.72;;;18.30;99.90;;;;;;5105025;28;20051;-62
2023/09/24 07:22:04;;;;;;;8.55;3.60;;;19.00;99.90;;;;;;5087628;28;20048;-62
2023/09/24 07:24:33;;;;;;;11.18;3.75;;;19.80;99.90;;;;;;5084338;28;20544;-63
2023/09/24 07:27:02;;;;;;;8.43;3.60;;;19.90;99.90;;;;;;5087225;28;20075;-62
2023/09/24 07:29:29;;;;;;;5.75;3.47;;;20.10;99.90;;;;;;5087164;28;20085;-62
2023/09/24 07:31:56;;;;;;;7.35;3.17;;;20.30;99.90;;;;;;5085788;28;20048;-62
2023/09/24 07:34:24;;;;;;;6.22;3.13;;;20.40;99.90;;;;;;5087366;28;20047;-62
2023/09/24 07:36:52;;;;;;;6.93;4.05;;;20.60;99.90;;;;;;5107483;28;20403;-62
2023/09/24 07:39:19;;;;;;;5.65;3.45;;;20.60;99.90;;;;;;5089641;28;20055;-63
2023/09/24 07:41:47;;;;;;;7.22;3.15;;;20.30;99.90;;;;;;5090766;28;20055;-63
2023/09/24 07:44:14;;;;;;;7.07;3.92;;;20.40;99.90;;;;;;5090780;28;20496;-62
2023/09/24 07:46:41;;;;;;;7.82;3.78;;;20.60;99.90;;;;;;5088396;28;20047;-63
2023/09/24 07:49:08;;;;;;;5.50;3.38;;;20.90;99.90;;;;;;5109596;28;20051;-62
2023/09/24 07:51:35;;;;;;;5.05;3.22;;;21.50;99.90;;;;;;5086336;28;20510;-63
2023/09/24 07:54:01;;;;;;;8.95;2.95;;;22.00;99.90;;;;;;5092261;28;20073;-62
2023/09/24 07:56:28;;;;;;;7.35;2.78;;;22.30;99.90;;;;;;5088415;28;20463;-61
2023/09/24 07:58:57;;;;;;;5.00;2.90;;;22.40;99.90;;;;;;5088077;28;20040;-62
2023/09/24 08:01:24;;;;;;;4.90;2.63;;;22.40;99.90;;;;;;5087959;28;20056;-62
2023/09/24 08:03:51;;;;;;;6.72;3.67;;;22.30;99.90;;;;;;5090934;28;20048;-63
2023/09/24 08:06:18;;;;;;;6.75;3.55;;;22.10;99.90;;;;;;5085522;28;20048;-64
2023/09/24 08:08:45;;;;;;;5.32;3.17;;;22.40;99.90;;;;;;5109877;28;20040;-64
2023/09/24 08:11:12;;;;;;;4.90;2.97;;;22.60;99.90;;;;;;5107806;28;20491;-64
2023/09/24 08:13:39;;;;;;;8.00;3.03;;;22.90;99.90;;;;;;5088171;28;20062;-63
2023/09/24 08:16:07;;;;;;;8.27;3.33;;;23.10;99.80;;;;;;5088707;28;20051;-64
2023/09/24 08:18:34;;;;;;;6.18;2.88;;;23.40;99.40;;;;;;5088909;28;20058;-64
2023/09/24 08:21:02;;;;;;;4.70;2.70;;;23.30;98.90;;;;;;5087718;28;20051;-63
2023/09/24 08:23:29;;;;;;;6.53;2.80;;;23.40;98.80;;;;;;5089735;28;20043;-63
2023/09/24 08:25:56;;;;;;;4.93;2.83;;;23.80;98.20;;;;;;5109771;28;20040;-63
2023/09/24 08:28:23;;;;;;;10.48;3.15;;;24.10;98.00;;;;;;5084821;28;20059;-64
2023/09/24 08:30:50;;;;;;;6.32;2.80;;;23.70;97.60;;;;;;5088971;28;20044;-63
2023/09/24 08:33:18;;;;;;;6.20;3.00;;;24.00;97.40;;;;;;5105674;28;20044;-63
2023/09/24 08:35:45;;;;;;;4.38;2.70;;;23.70;96.00;;;;;;5088182;28;20139;-63
2023/09/24 08:38:12;;;;;;;5.18;2.70;;;24.30;97.30;;;;;;5088417;28;20047;-62
2023/09/24 08:40:41;;;;;;;7.20;2.63;;;24.80;95.70;;;;;;5106838;28;20557;-63
2023/09/24 08:43:11;;;;;;;4.90;2.60;;;25.20;95.30;;;;;;5087861;28;20048;-64
2023/09/24 08:45:38;;;;;;;5.80;2.67;;;24.90;94.80;;;;;;5095088;28;20040;-63
2023/09/24 08:48:09;;;;;;;5.28;2.30;;;25.40;94.90;;;;;;5095809;28;20050;-63
2023/09/24 08:50:41;;;;;;;5.20;2.40;;;25.60;93.20;;;;;;5114368;28;20058;-64
2023/09/24 08:53:10;;;;;;;4.53;2.20;;;25.60;93.10;;;;;;5096762;28;20047;-64
2023/09/24 08:55:38;;;;;;;4.07;2.30;;;25.90;92.10;;;;;;5096638;28;20055;-63
2023/09/24 08:58:05;;;;;;;5.68;2.22;;;26.00;93.40;;;;;;5072991;28;20460;-63
2023/09/24 09:00:32;;;;;;;5.25;2.22;;;26.00;92.70;;;;;;5074578;28;20148;-64
2023/09/24 09:03:03;;;;;;;5.47;2.50;;;25.90;92.30;;;;;;5073722;28;20047;-63
2023/09/24 09:05:34;;;;;;;5.68;2.25;;;26.20;92.20;;;;;;5073724;28;20455;-63
2023/09/24 09:08:03;;;;;;;5.55;2.40;;;26.20;91.80;;;;;;5073448;28;20056;-64
2023/09/24 09:10:32;;;;;;;4.00;2.13;;;26.00;91.30;;;;;;5072826;28;20066;-64
2023/09/24 09:13:06;;;;;;;4.93;2.38;;;26.30;91.80;;;;;;5089972;28;20052;-63
2023/09/24 09:15:34;;;;;;;4.45;2.00;;;26.30;90.80;;;;;;5072903;28;20063;-64
2023/09/24 09:18:01;;;;;;;5.45;2.00;;;26.10;91.10;;;;;;5070637;28;20060;-66
2023/09/24 09:20:44;;;;;;;5.28;2.33;;;26.20;90.80;;;;;;5074164;28;20569;-64
2023/09/24 09:23:16;;;;;;;5.00;1.95;;;26.40;89.50;;;;;;5073040;28;20059;-64
2023/09/24 09:25:52;;;;;;;5.55;2.28;;;27.00;90.40;;;;;;5072694;28;20048;-64
2023/09/24 09:28:23;;;;;;;5.22;1.85;;;27.40;88.40;;;;;;5072899;28;20055;-64
2023/09/24 09:31:05;;;;;;;5.40;2.17;;;27.60;88.00;;;;;;5072222;28;20076;-64
2023/09/24 09:33:38;;;;;;;8.43;2.30;;;27.20;84.90;;;;;;5072871;28;20056;-65
2023/09/24 09:36:05;;;;;;;5.13;2.05;;;26.80;85.80;;;;;;5073818;28;20036;-65
2023/09/24 09:38:34;;;;;;;4.72;1.75;;;26.60;88.10;;;;;;5088825;28;20052;-65
2023/09/24 09:41:00;;;;;;;6.65;2.00;;;26.70;87.80;;;;;;5070528;28;20496;-66
2023/09/24 09:43:29;;;;;;;3.70;1.60;;;26.60;87.30;;;;;;5073764;28;20060;-65
2023/09/24 09:45:57;;;;;;;4.85;1.67;;;26.90;88.40;;;;;;5089103;28;20056;-65
2023/09/24 09:48:32;;;;;;;4.15;1.90;;;26.80;87.40;;;;;;5072566;28;20493;-65
2023/09/24 09:51:02;;;;;;;4.30;1.85;;;27.00;85.50;;;;;;5072295;28;20404;-64
2023/09/24 09:53:33;;;;;;;3.42;1.65;;;27.00;85.60;;;;;;5070660;28;20056;-64
2023/09/24 09:56:04;;;;;;;5.38;1.95;;;26.90;85.60;;;;;;5077849;28;20543;-64
2023/09/24 09:58:33;;;;;;;3.45;1.90;;;26.80;83.10;;;;;;5095408;28;20053;-64
2023/09/24 10:01:00;;;;;;;5.20;2.13;;;27.30;85.20;;;;;;5096015;28;20054;-63
2023/09/24 10:03:28;;;;;;;4.57;1.60;;;27.80;84.40;;;;;;5094040;28;20071;-63
2023/09/24 10:05:57;;;;;;;4.50;2.15;;;27.40;83.40;;;;;;5095264;28;20040;-64
2023/09/24 10:08:41;;;;;;;3.47;2.03;;;27.50;83.00;;;;;;5113844;28;20051;-64
2023/09/24 10:11:10;;;;;;;6.20;2.20;;;27.50;81.30;;;;;;5095528;28;20039;-64
2023/09/24 10:13:48;;;;;;;7.10;2.17;;;27.30;82.80;;;;;;5095142;28;20104;-64
2023/09/24 10:16:37;;;;;;;5.32;2.13;;;27.40;81.30;;;;;;5095695;28;20062;-64
2023/09/24 10:19:05;;;;;;;3.78;1.50;;;27.60;81.90;;;;;;5095416;28;20498;-64
2023/09/24 10:21:34;;;;;;;6.43;2.63;;;28.00;82.60;;;;;;5095009;28;20441;-64
2023/09/24 10:24:48;;;;;;;3.40;1.60;;;28.30;81.70;;;;;;5111416;28;20093;-63
2023/09/24 10:27:20;;;;;;;5.03;1.70;;;27.30;80.40;;;;;;5112915;28;20405;-64
2023/09/24 10:30:03;;;;;;;5.22;1.92;;;27.50;82.30;;;;;;5112127;28;20105;-63
2023/09/24 10:32:50;;;;;;;5.20;1.75;;;27.60;82.40;;;;;;5094836;28;20044;-63
2023/09/24 10:35:17;;;;;;;5.07;1.58;;;27.70;81.30;;;;;;5112893;28;20051;-65
2023/09/24 10:38:04;;;;;;;5.13;2.08;;;28.00;81.20;;;;;;5092922;28;20058;-64
2023/09/24 10:40:33;;;;;;;2.95;1.38;;;27.30;79.20;;;;;;5094963;28;20060;-63
2023/09/24 10:43:19;;;;;;;4.82;1.75;;;27.20;80.40;;;;;;5112491;28;20118;-63
2023/09/24 10:45:46;;;;;;;5.60;1.67;;;27.40;80.00;;;;;;5095203;28;20048;-63
2023/09/24 10:48:14;;;;;;;6.50;1.75;;;27.50;80.60;;;;;;5094442;28;20056;-64
2023/09/24 10:50:43;;;;;;;5.47;1.90;;;27.50;79.50;;;;;;5090529;28;20047;-63
2023/09/24 10:53:10;;;;;;;4.07;1.55;;;27.70;80.30;;;;;;5094784;28;20100;-63
2023/09/24 10:55:39;;;;;;;4.53;1.83;;;28.20;80.40;;;;;;5094451;28;20047;-63
2023/09/24 10:58:12;;;;;;;5.25;2.10;;;28.50;79.10;;;;;;5094867;28;20071;-63
2023/09/24 11:00:42;;;;;;;5.13;1.77;;;28.10;78.60;;;;;;5094765;28;20543;-63
2023/09/24 11:03:10;;;;;;;7.60;1.85;;;28.40;78.80;;;;;;5093782;28;20062;-63
2023/09/24 11:05:45;;;;;;;6.20;1.85;;;28.30;78.20;;;;;;5092846;28;20067;-64
2023/09/24 11:08:14;;;;;;;5.15;1.83;;;27.90;77.80;;;;;;5094360;28;20055;-64
2023/09/24 11:10:41;;;;;;;7.93;2.53;;;28.10;78.50;;;;;;5094047;28;20050;-63
2023/09/24 11:13:08;;;;;;;3.33;1.63;;;27.80;77.30;;;;;;5094161;28;20734;-64
2023/09/24 11:15:36;;;;;;;3.50;1.85;;;27.30;78.60;;;;;;5092202;28;20052;-64
2023/09/24 11:18:06;;;;;;;5.05;1.65;;;27.60;78.50;;;;;;5093823;28;20065;-64
2023/09/24 11:20:34;;;;;;;4.70;1.70;;;27.40;77.80;;;;;;5094561;28;20043;-64
2023/09/24 11:23:03;;;;;;;2.92;1.50;;;27.10;78.20;;;;;;5093960;28;20410;-64
2023/09/24 11:25:30;;;;;;;5.03;2.10;;;27.00;79.50;;;;;;5112444;28;20120;-64
2023/09/24 11:27:59;;;;;;;3.28;1.50;;;26.50;78.30;;;;;;5094064;28;20180;-64
2023/09/24 11:30:38;;;;;;;4.00;1.57;;;26.30;79.40;;;;;;5093596;28;20050;-64
2023/09/24 11:33:13;;;;;;;3.22;1.50;;;26.70;79.50;;;;;;5112515;28;20403;-64
2023/09/24 11:35:40;;;;;;;3.10;1.25;;;26.70;77.40;;;;;;5091083;28;20377;-64
2023/09/24 11:38:08;;;;;;;4.80;2.00;;;26.70;79.30;;;;;;5093254;28;20055;-64
2023/09/24 11:40:36;;;;;;;5.10;1.67;;;26.90;78.70;;;;;;5093050;28;20381;-64
2023/09/24 11:43:04;;;;;;;6.22;1.67;;;27.10;79.00;;;;;;5089601;28;20047;-64
2023/09/24 11:45:43;;;;;;;4.32;1.60;;;27.20;79.10;;;;;;5111740;28;20559;-64
2023/09/24 11:48:13;;;;;;;5.10;1.90;;;27.50;77.50;;;;;;5111612;28;20071;-63
2023/09/24 11:50:40;;;;;;;;;;;27.00;77.00;;;;;;5093583;28;20059;-63
2023/09/24 11:53:07;;;;;;;5.13;1.83;;;26.90;77.40;;;;;;5093363;28;19926;-64
2023/09/24 11:55:34;;;;;;;4.35;1.70;;;26.40;76.70;;;;;;5112062;28;20075;-63
2023/09/24 11:58:02;;;;;;;3.55;1.75;;;25.60;77.70;;;;;;5093458;28;20164;-63
2023/09/24 12:00:29;;;;;;;3.92;1.40;;;25.70;79.20;;;;;;5112408;28;20050;-64
2023/09/24 12:02:56;;;;;;;3.38;1.40;;;26.20;79.80;;;;;;5093899;28;20048;-63
2023/09/24 12:05:24;;;;;;;3.78;1.60;;;26.60;78.80;;;;;;5111476;28;20047;-64
2023/09/24 12:07:51;;;;;;;3.83;1.55;;;26.30;78.60;;;;;;5112093;28;20048;-64
2023/09/24 12:10:21;;;;;;;4.43;1.23;;;26.30;78.60;;;;;;5112017;28;20384;-64
2023/09/24 12:12:49;;;;;;;5.15;1.90;;;26.80;78.10;;;;;;5093028;28;20126;-64
2023/09/24 12:15:17;;;;;;;4.50;1.48;;;26.60;77.40;;;;;;5093868;28;20550;-64
2023/09/24 12:17:45;;;;;;;2.90;1.42;;;26.80;77.50;;;;;;5096644;28;20130;-63
2023/09/24 12:20:12;;;;;;;3.83;1.27;;;27.00;76.90;;;;;;5097039;28;20048;-63
2023/09/24 12:22:42;;;;;;;4.35;1.52;;;27.40;77.00;;;;;;5097539;28;20054;-63
2023/09/24 12:25:10;;;;;;;4.28;1.77;;;27.70;76.90;;;;;;5115675;28;20056;-64
2023/09/24 12:27:37;;;;;;;3.83;1.63;;;27.80;76.60;;;;;;5115316;28;20663;-63
2023/09/24 12:30:07;;;;;;;6.65;1.90;;;28.20;76.80;;;;;;5115620;28;20108;-64
2023/09/24 12:32:35;;;;;;;5.47;1.40;;;28.60;74.70;;;;;;5097573;28;20076;-64
2023/09/24 12:35:03;;;;;;;4.57;1.63;;;29.00;75.50;;;;;;5095842;28;20055;-64
2023/09/24 12:37:30;;;;;;;4.93;1.80;;;29.10;74.50;;;;;;5096660;28;20059;-64
2023/09/24 12:39:59;;;;;;;4.70;1.15;;;28.70;74.10;;;;;;5095375;28;20406;-64
2023/09/24 12:42:28;;;;;;;4.03;1.35;;;28.30;74.40;;;;;;5096933;28;20060;-64
2023/09/24 12:44:55;;;;;;;5.53;1.53;;;28.00;74.10;;;;;;5115657;28;20082;-64
2023/09/24 12:47:22;;;;;;;3.60;1.40;;;27.90;75.20;;;;;;5115235;28;20047;-64
2023/09/24 12:49:49;;;;;;;2.85;1.40;;;27.10;75.00;;;;;;5097436;28;20048;-64
2023/09/24 12:52:16;;;;;;;3.00;1.55;;;26.50;76.00;;;;;;5092386;28;20048;-64